Time;durP1;ratioP1;P1;durP2;ratioP2;P2;SDS_P1;SDS_P2;PMS_P1;PMS_P2;Temp;Humidity;BMP_temperature;BMP_pressure;BME280_temperature;BME280_humidity;BME280_pressure;Samples;Min_cycle;Max_cycle;Signal;HPM_P1;HPM_P2
2021/12/19 00:00:09;;;;;;;0.00;0.00;;;;;;;9.96;74.53;103191.94;7360366;19;20011;-58
2021/12/19 00:10:47;;;;;;;0.00;0.00;;;;;;;9.78;74.22;103168.06;7359057;19;20034;-57
2021/12/19 00:13:13;;;;;;;0.00;0.00;;;;;;;9.80;74.18;103166.41;7356642;19;20018;-59
2021/12/19 00:15:38;;;;;;;0.00;0.00;;;;;;;9.87;74.12;103184.78;7363301;19;20010;-58
2021/12/19 00:18:04;;;;;;;0.10;0.10;;;;;;;9.86;74.11;103182.16;7358261;19;20019;-58
2021/12/19 00:20:29;;;;;;;0.00;0.00;;;;;;;9.86;73.98;103187.38;7360181;19;20027;-56
2021/12/19 00:22:55;;;;;;;0.10;0.10;;;;;;;9.84;73.88;103181.28;7358397;19;20074;-59
2021/12/19 00:25:20;;;;;;;0.00;0.00;;;;;;;9.84;74.09;103181.28;7362335;19;20135;-58
2021/12/19 00:27:46;;;;;;;0.00;0.00;;;;;;;9.83;74.62;103172.56;7365336;19;20011;-60
2021/12/19 00:30:11;;;;;;;0.10;0.10;;;;;;;9.85;74.17;103173.47;7360643;19;20462;-57
2021/12/19 00:32:37;;;;;;;0.00;0.00;;;;;;;9.85;74.33;103175.19;7358136;19;20049;-59
2021/12/19 00:35:03;;;;;;;0.00;0.00;;;;;;;9.86;74.25;103171.72;7361322;19;20024;-57
2021/12/19 00:37:28;;;;;;;0.00;0.00;;;;;;;9.85;74.26;103175.19;7356823;19;20094;-59
2021/12/19 00:39:54;;;;;;;0.05;0.05;;;;;;;9.85;74.26;103175.19;7361942;19;20029;-57
2021/12/19 00:42:33;;;;;;;0.10;0.10;;;;;;;9.87;73.85;103160.44;7352803;19;20041;-59
2021/12/19 00:45:02;;;;;;;0.00;0.00;;;;;;;9.84;74.17;103163.00;7360724;19;20074;-58
2021/12/19 00:47:28;;;;;;;0.00;0.00;;;;;;;9.83;74.45;103162.13;7353536;19;20023;-58
2021/12/19 00:49:54;;;;;;;0.00;0.00;;;;;;;9.83;74.25;103162.13;7358943;19;20015;-59
2021/12/19 00:52:21;;;;;;;0.00;0.00;;;;;;;9.84;74.31;103157.78;7358628;19;20007;-57
2021/12/19 00:54:46;;;;;;;0.00;0.00;;;;;;;9.83;74.04;103166.44;7363332;19;20011;-58
2021/12/19 00:57:11;;;;;;;0.10;0.10;;;;;;;9.73;73.88;103134.09;7362638;19;20044;-56
2021/12/19 00:59:37;;;;;;;0.00;0.00;;;;;;;9.67;73.97;103133.06;7360657;19;20017;-59
2021/12/19 01:02:02;;;;;;;0.00;0.00;;;;;;;9.76;74.14;103151.53;7364540;19;20039;-58
2021/12/19 01:04:28;;;;;;;0.10;0.10;;;;;;;9.69;74.21;103136.59;7359886;19;20011;-58
2021/12/19 01:06:57;;;;;;;0.05;0.05;;;;;;;9.63;73.85;103126.94;7361719;19;20432;-57
2021/12/19 01:09:22;;;;;;;0.05;0.05;;;;;;;9.74;73.78;103146.28;7362061;19;20011;-59
2021/12/19 01:11:49;;;;;;;0.05;0.05;;;;;;;9.55;73.87;103118.94;7364599;19;20094;-59
2021/12/19 01:14:16;;;;;;;0.00;0.00;;;;;;;9.64;73.92;103139.13;7356057;19;20019;-57
2021/12/19 01:16:41;;;;;;;0.00;0.00;;;;;;;9.67;73.82;103151.31;7361153;19;20026;-58
2021/12/19 01:19:07;;;;;;;0.00;0.00;;;;;;;9.65;73.83;103148.69;7352569;19;20021;-58
2021/12/19 01:21:32;;;;;;;0.00;0.00;;;;;;;9.65;74.20;103150.44;7359879;19;20006;-57
2021/12/19 01:23:58;;;;;;;0.00;0.00;;;;;;;9.61;74.28;103145.13;7362099;19;20019;-57
2021/12/19 01:26:23;;;;;;;0.00;0.00;;;;;;;9.59;73.77;103151.19;7364444;19;20017;-59
2021/12/19 01:28:49;;;;;;;0.00;0.00;;;;;;;9.38;73.95;103122.94;7355961;19;20143;-59
2021/12/19 01:31:15;;;;;;;0.00;0.00;;;;;;;9.49;73.39;103150.13;7369312;19;20010;-57
2021/12/19 01:33:40;;;;;;;0.00;0.00;;;;;;;9.35;73.68;103134.16;7356229;19;20470;-58
2021/12/19 01:36:06;;;;;;;0.00;0.00;;;;;;;9.24;73.96;103121.75;7357686;19;20014;-56
2021/12/19 01:38:32;;;;;;;0.00;0.00;;;;;;;9.27;73.78;103143.53;7366282;19;20021;-56
2021/12/19 01:40:58;;;;;;;0.05;0.05;;;;;;;9.22;73.58;103144.28;7369313;19;20470;-58
2021/12/19 01:43:27;;;;;;;0.00;0.00;;;;;;;9.14;73.74;103135.44;7363795;19;20035;-57
2021/12/19 01:45:54;;;;;;;0.03;0.03;;;;;;;9.07;73.40;103145.72;7362232;19;20003;-59
2021/12/19 01:48:21;;;;;;;0.00;0.00;;;;;;;9.01;74.27;103144.69;7365740;19;20022;-57
2021/12/19 01:50:50;;;;;;;0.00;0.00;;;;;;;8.93;73.68;103139.31;7363048;19;20022;-59
2021/12/19 01:53:17;;;;;;;0.00;0.00;;;;;;;8.86;73.57;103142.59;7365254;19;22560;-58
2021/12/19 01:55:45;;;;;;;0.10;0.10;;;;;;;8.79;73.57;103143.31;7362202;19;20018;-58
2021/12/19 01:58:11;;;;;;;;;;;;;;;8.73;72.81;103140.56;7365161;19;20014;-56
2021/12/19 02:00:41;;;;;;;0.10;0.10;;;;;;;8.63;73.55;103147.28;7361619;19;19925;-59
2021/12/19 02:03:09;;;;;;;0.03;0.03;;;;;;;8.49;73.60;103133.91;7366892;19;20014;-59
2021/12/19 02:05:36;;;;;;;0.00;0.00;;;;;;;8.42;73.95;103132.00;7354715;19;20022;-58
2021/12/19 02:08:04;;;;;;;0.08;0.08;;;;;;;8.31;73.71;103120.38;7363830;19;20025;-59
2021/12/19 02:10:30;;;;;;;;;;;;;;;8.29;72.86;103129.88;7367182;19;20051;-59
2021/12/19 02:12:58;;;;;;;0.00;0.00;;;;;;;8.18;73.82;103131.34;7364454;19;19939;-55
2021/12/19 02:15:25;;;;;;;0.00;0.00;;;;;;;8.11;73.43;103135.50;7365939;19;20704;-58
2021/12/19 02:17:55;;;;;;;0.00;0.00;;;;;;;8.03;74.18;103127.50;7357899;19;20055;-57
2021/12/19 02:20:22;;;;;;;0.00;0.00;;;;;;;7.95;74.29;103118.59;7366390;19;20014;-56
2021/12/19 02:22:48;;;;;;;0.00;0.00;;;;;;;7.83;74.73;103110.47;7365075;19;20022;-57
2021/12/19 02:25:14;;;;;;;0.00;0.00;;;;;;;7.82;75.04;103116.50;7364480;19;20842;-59
2021/12/19 02:27:40;;;;;;;0.00;0.00;;;;;;;7.78;75.12;103119.84;7364416;19;20025;-56
2021/12/19 02:30:08;;;;;;;0.00;0.00;;;;;;;7.73;75.04;103121.44;7361543;19;20015;-58
2021/12/19 02:32:35;;;;;;;0.00;0.00;;;;;;;7.69;74.83;103119.59;7362206;19;20006;-59
2021/12/19 02:35:05;;;;;;;0.00;0.00;;;;;;;7.65;74.43;103117.75;7362339;19;20034;-57
2021/12/19 02:40:38;;;;;;;0.00;0.00;;;;;;;7.56;74.70;103123.59;7359695;19;20018;-58
2021/12/19 02:48:27;;;;;;;0.00;0.00;;;;;;;7.42;74.77;103117.97;7362522;19;20017;-58
2021/12/19 02:50:54;;;;;;;0.00;0.00;;;;;;;7.27;74.62;103094.13;7361239;19;20006;-57
2021/12/19 02:53:34;;;;;;;0.00;0.00;;;;;;;7.36;74.61;103115.22;7362860;19;20010;-57
2021/12/19 02:56:02;;;;;;;0.10;0.10;;;;;;;7.32;75.30;103117.66;7364220;19;20447;-59
2021/12/19 02:58:29;;;;;;;0.03;0.03;;;;;;;7.33;75.33;103125.50;7358058;19;20045;-57
2021/12/19 03:00:56;;;;;;;0.05;0.05;;;;;;;7.33;75.40;103125.50;7356086;19;20010;-58
2021/12/19 03:03:21;;;;;;;0.00;0.00;;;;;;;7.32;75.21;103113.34;7364334;19;20014;-58
2021/12/19 03:05:47;;;;;;;0.00;0.00;;;;;;;7.24;75.49;103104.44;7361716;19;20086;-58
2021/12/19 03:08:13;;;;;;;0.00;0.00;;;;;;;7.40;75.78;103116.16;7362243;19;20466;-57
2021/12/19 03:17:56;;;;;;;0.00;0.00;;;;;;;7.49;75.86;103117.31;7351113;19;20037;-55
2021/12/19 03:19:03;;;;;;;0.05;0.05;;;;;;;7.62;75.87;103109.88;7363751;19;20505;-57
2021/12/19 03:21:28;;;;;;;0.00;0.00;;;;;;;7.70;75.87;103110.94;7361008;19;20014;-59
2021/12/19 03:23:54;;;;;;;0.03;0.03;;;;;;;7.75;75.71;103112.84;7362407;19;20035;-58
2021/12/19 03:26:19;;;;;;;0.00;0.00;;;;;;;7.82;75.64;103111.31;7351116;19;20043;-58
2021/12/19 03:28:45;;;;;;;0.00;0.00;;;;;;;7.90;75.38;103108.91;7362026;19;20007;-59
2021/12/19 03:31:11;;;;;;;0.00;0.00;;;;;;;7.95;75.66;103102.97;7362845;19;20002;-56
2021/12/19 03:33:38;;;;;;;0.10;0.10;;;;;;;8.01;75.74;103097.97;7361665;19;20457;-56
2021/12/19 03:36:05;;;;;;;0.00;0.00;;;;;;;8.09;75.64;103102.47;7355025;19;20026;-58
2021/12/19 03:38:33;;;;;;;0.00;0.00;;;;;;;8.12;75.58;103095.63;7353555;19;20344;-58
2021/12/19 03:41:22;;;;;;;0.00;0.00;;;;;;;8.16;75.79;103086.16;7364082;19;20018;-58
2021/12/19 03:43:48;;;;;;;0.00;0.00;;;;;;;8.26;75.36;103098.56;7357246;19;20118;-59
2021/12/19 03:46:14;;;;;;;0.00;0.00;;;;;;;8.29;75.29;103086.50;7352867;19;20011;-55
2021/12/19 03:48:40;;;;;;;0.10;0.10;;;;;;;8.35;75.37;103087.50;7349432;19;20006;-58
2021/12/19 03:51:06;;;;;;;0.00;0.00;;;;;;;8.35;74.94;103072.75;7363498;19;20010;-58
2021/12/19 03:53:32;;;;;;;0.00;0.00;;;;;;;8.43;74.99;103080.81;7353848;19;20751;-58
2021/12/19 03:55:57;;;;;;;0.00;0.00;;;;;;;8.46;75.24;103079.13;7356066;19;20026;-58
2021/12/19 03:58:23;;;;;;;0.05;0.05;;;;;;;8.48;75.24;103077.47;7359134;19;20010;-58
2021/12/19 04:00:50;;;;;;;0.03;0.03;;;;;;;8.53;75.08;103083.66;7357263;19;20010;-57
2021/12/19 04:03:20;;;;;;;0.00;0.00;;;;;;;8.54;74.72;103085.41;7356934;19;20014;-58
2021/12/19 04:05:50;;;;;;;0.00;0.00;;;;;;;8.61;74.80;103080.34;7353575;19;20006;-59
2021/12/19 04:08:18;;;;;;;0.08;0.08;;;;;;;8.61;74.74;103081.22;7355729;19;20015;-53
2021/12/19 04:10:43;;;;;;;0.00;0.00;;;;;;;8.62;74.41;103072.59;7354994;19;20007;-57
2021/12/19 04:13:09;;;;;;;0.00;0.00;;;;;;;8.65;74.54;103071.78;7361079;19;20007;-57
2021/12/19 04:15:35;;;;;;;0.00;0.00;;;;;;;8.57;74.70;103055.97;7353305;19;20692;-58
2021/12/19 04:18:01;;;;;;;0.00;0.00;;;;;;;8.67;74.60;103065.78;7353857;19;20015;-58
2021/12/19 04:20:26;;;;;;;0.00;0.00;;;;;;;8.70;74.84;103064.94;7361555;19;20009;-59
2021/12/19 04:22:52;;;;;;;0.00;0.00;;;;;;;8.71;74.56;103061.50;7355727;19;20011;-57
2021/12/19 04:25:19;;;;;;;0.00;0.00;;;;;;;8.73;74.92;103063.31;7353484;19;20041;-58
2021/12/19 04:27:45;;;;;;;0.00;0.00;;;;;;;8.74;74.52;103057.25;7352540;19;20031;-58
2021/12/19 04:30:17;;;;;;;0.00;0.00;;;;;;;8.77;75.03;103057.31;7367906;19;20074;-59
2021/12/19 04:32:46;;;;;;;0.00;0.00;;;;;;;8.75;74.94;103050.31;7369103;19;20006;-59
2021/12/19 04:35:13;;;;;;;0.10;0.10;;;;;;;8.80;74.86;103059.09;7369813;19;20003;-57
2021/12/19 04:40:33;;;;;;;0.00;0.00;;;;;;;8.76;74.67;103033.81;7367800;19;20376;-58
2021/12/19 04:54:31;;;;;;;0.00;0.00;;;;;;;8.89;74.72;103041.06;7361582;19;20512;-58
2021/12/19 05:14:03;;;;;;;0.00;0.00;;;;;;;8.97;75.09;103049.94;7366898;19;20662;-57
2021/12/19 05:14:50;;;;;;;0.00;0.00;;;;;;;9.03;74.73;103047.47;7366402;19;20033;-59
2021/12/19 05:17:21;;;;;;;0.10;0.10;;;;;;;9.06;75.15;103038.81;7358382;19;20006;-58
2021/12/19 05:20:06;;;;;;;0.00;0.00;;;;;;;9.07;74.82;103046.69;7364347;19;20010;-58
2021/12/19 05:22:36;;;;;;;0.00;0.00;;;;;;;9.09;74.66;103039.75;7366608;19;20111;-59
2021/12/19 05:25:15;;;;;;;0.00;0.00;;;;;;;9.13;75.13;103039.84;7365124;19;20017;-55
2021/12/19 05:27:43;;;;;;;0.08;0.08;;;;;;;9.14;74.71;103036.38;7362264;19;20015;-58
2021/12/19 05:30:09;;;;;;;0.10;0.10;;;;;;;9.16;75.11;103045.09;7364517;19;20018;-57
2021/12/19 05:32:35;;;;;;;0.00;0.00;;;;;;;9.15;74.63;103048.56;7364271;19;20010;-58
2021/12/19 05:35:00;;;;;;;0.00;0.00;;;;;;;9.20;75.13;103052.16;7362293;19;20621;-58
2021/12/19 05:45:38;;;;;;;0.10;0.10;;;;;;;9.27;74.51;103054.88;7355645;19;20017;-58
2021/12/19 05:48:04;;;;;;;0.00;0.00;;;;;;;9.29;74.55;103057.56;7362617;19;20018;-59
2021/12/19 05:50:29;;;;;;;0.00;0.00;;;;;;;9.30;74.71;103054.09;7359304;19;20018;-56
2021/12/19 05:52:55;;;;;;;0.08;0.08;;;;;;;9.31;74.75;103050.63;7359290;19;20011;-57
2021/12/19 05:55:20;;;;;;;0.00;0.00;;;;;;;9.34;74.67;103050.69;7361640;19;20781;-57
2021/12/19 05:57:46;;;;;;;0.00;0.00;;;;;;;9.35;74.43;103057.66;7357893;19;20014;-58
2021/12/19 06:00:15;;;;;;;0.00;0.00;;;;;;;9.38;74.76;103052.53;7357150;19;20041;-59
2021/12/19 06:02:42;;;;;;;0.05;0.05;;;;;;;9.38;74.50;103047.31;7357466;19;20846;-55
2021/12/19 06:05:09;;;;;;;0.00;0.00;;;;;;;9.41;74.51;103054.31;7361707;19;20070;-59
2021/12/19 06:07:34;;;;;;;0.10;0.10;;;;;;;9.41;74.53;103056.91;7359917;19;20018;-58
2021/12/19 06:10:00;;;;;;;0.00;0.00;;;;;;;9.43;74.54;103050.88;7357051;19;20010;-57
2021/12/19 06:12:26;;;;;;;0.00;0.00;;;;;;;9.45;74.79;103064.81;7359547;19;20027;-58
2021/12/19 06:14:52;;;;;;;0.00;0.00;;;;;;;9.46;74.60;103060.50;7357098;19;20379;-57
2021/12/19 06:17:18;;;;;;;0.00;0.00;;;;;;;9.46;74.45;103063.97;7364159;19;20014;-59
2021/12/19 06:19:43;;;;;;;0.00;0.00;;;;;;;9.44;74.84;103056.97;7356020;19;20026;-57
2021/12/19 06:22:09;;;;;;;0.00;0.00;;;;;;;9.48;74.77;103064.91;7364092;19;20734;-59
2021/12/19 06:24:35;;;;;;;0.10;0.10;;;;;;;9.49;74.70;103071.00;7357158;19;20015;-57
2021/12/19 06:27:01;;;;;;;0.00;0.00;;;;;;;9.50;74.29;103059.69;7365804;19;20120;-57
2021/12/19 06:29:30;;;;;;;0.00;0.00;;;;;;;9.50;74.58;103063.19;7354921;19;20010;-58
2021/12/19 06:31:56;;;;;;;0.00;0.00;;;;;;;9.52;74.58;103065.81;7363741;19;20474;-57
2021/12/19 06:34:22;;;;;;;0.00;0.00;;;;;;;9.52;74.67;103058.88;7357856;19;20011;-58
2021/12/19 06:36:48;;;;;;;0.00;0.00;;;;;;;9.53;74.50;103063.25;7357013;19;20026;-59
2021/12/19 06:39:14;;;;;;;0.00;0.00;;;;;;;9.52;74.65;103064.09;7366106;19;20002;-59
2021/12/19 06:41:39;;;;;;;0.10;0.10;;;;;;;9.52;74.63;103066.69;7355825;19;20038;-57
2021/12/19 06:44:05;;;;;;;0.00;0.00;;;;;;;9.52;74.63;103063.22;7363576;19;20014;-58
2021/12/19 06:46:31;;;;;;;0.00;0.00;;;;;;;9.52;74.49;103061.47;7361609;19;20540;-58
2021/12/19 06:48:57;;;;;;;0.10;0.10;;;;;;;9.52;74.84;103061.47;7363707;19;20018;-59
2021/12/19 06:51:23;;;;;;;0.10;0.10;;;;;;;9.52;74.57;103066.69;7355394;19;20098;-58
2021/12/19 06:53:48;;;;;;;0.00;0.00;;;;;;;9.50;74.71;103057.09;7359678;19;20040;-57
2021/12/19 06:56:14;;;;;;;0.00;0.00;;;;;;;9.51;74.44;103059.72;7358383;19;20021;-57
2021/12/19 06:58:40;;;;;;;0.00;0.00;;;;;;;9.49;74.65;103052.72;7358937;19;20014;-58
2021/12/19 07:01:05;;;;;;;0.00;0.00;;;;;;;9.51;74.38;103064.94;7362629;19;20014;-54
2021/12/19 07:03:31;;;;;;;0.05;0.05;;;;;;;9.51;74.36;103056.25;7350967;19;20034;-57
2021/12/19 07:05:56;;;;;;;0.00;0.00;;;;;;;9.47;74.33;103046.59;7356973;19;20018;-57
2021/12/19 07:08:23;;;;;;;0.00;0.00;;;;;;;9.51;74.63;103054.50;7357400;19;20067;-58
2021/12/19 07:10:49;;;;;;;0.00;0.00;;;;;;;9.51;74.63;103053.63;7361288;19;20013;-59
2021/12/19 07:13:20;;;;;;;0.08;0.08;;;;;;;9.50;74.31;103050.16;7359185;19;20014;-57
2021/12/19 07:15:49;;;;;;;0.00;0.00;;;;;;;9.52;74.26;103051.03;7359238;19;20014;-57
2021/12/19 07:18:16;;;;;;;0.10;0.10;;;;;;;9.49;74.76;103051.00;7360748;19;20002;-56
2021/12/19 07:20:43;;;;;;;0.00;0.00;;;;;;;9.38;74.52;103036.88;7362515;19;20017;-58
2021/12/19 07:23:13;;;;;;;0.00;0.00;;;;;;;9.53;74.28;103051.91;7361920;19;20036;-59
2021/12/19 07:25:39;;;;;;;0.00;0.00;;;;;;;9.49;74.73;103053.59;7350746;19;20017;-58
2021/12/19 07:28:05;;;;;;;0.10;0.10;;;;;;;9.49;74.25;103051.00;7360073;19;20785;-56
2021/12/19 07:30:31;;;;;;;0.00;0.00;;;;;;;9.49;74.47;103045.78;7361859;19;20063;-59
2021/12/19 07:32:57;;;;;;;0.10;0.10;;;;;;;9.37;74.66;103029.88;7358331;19;20022;-58
2021/12/19 07:35:24;;;;;;;0.10;0.10;;;;;;;9.48;74.41;103044.03;7362215;19;20014;-59
2021/12/19 07:37:52;;;;;;;0.10;0.10;;;;;;;9.47;74.39;103042.25;7358166;19;20022;-58
2021/12/19 07:40:19;;;;;;;;;;;;;;;9.53;74.15;103057.13;7360166;19;20014;-57
2021/12/19 07:42:45;;;;;;;0.05;0.05;;;;;;;9.47;74.21;103047.47;7363686;19;19962;-58
2021/12/19 07:45:11;;;;;;;0.00;0.00;;;;;;;9.45;74.38;103046.56;7358669;19;20014;-58
2021/12/19 07:47:39;;;;;;;0.10;0.10;;;;;;;9.46;74.63;103050.06;7363396;19;20033;-57
2021/12/19 07:50:09;;;;;;;0.10;0.10;;;;;;;9.44;74.37;103052.63;7355725;19;20025;-56
2021/12/19 07:52:34;;;;;;;0.00;0.00;;;;;;;9.39;74.51;103042.97;7359918;19;20015;-57
2021/12/19 07:55:01;;;;;;;0.00;0.00;;;;;;;9.42;74.92;103041.28;7354952;19;20006;-59
2021/12/19 07:57:26;;;;;;;0.00;0.00;;;;;;;9.40;74.38;103032.56;7361592;19;20011;-59
2021/12/19 07:59:52;;;;;;;0.10;0.10;;;;;;;9.41;74.38;103036.03;7362164;19;20030;-57
2021/12/19 08:02:17;;;;;;;0.00;0.00;;;;;;;9.35;74.80;103031.59;7360164;19;20013;-58
2021/12/19 08:04:43;;;;;;;0.10;0.10;;;;;;;9.40;74.41;103035.16;7366896;19;20014;-58
2021/12/19 08:07:11;;;;;;;0.08;0.08;;;;;;;9.37;74.65;103029.88;7361561;19;20034;-59
2021/12/19 08:09:40;;;;;;;0.03;0.03;;;;;;;9.30;74.44;103023.69;7366030;19;20007;-59
2021/12/19 08:12:07;;;;;;;0.10;0.10;;;;;;;9.38;74.44;103031.66;7357257;19;20014;-58
2021/12/19 08:14:33;;;;;;;0.00;0.00;;;;;;;9.37;74.38;103035.09;7369438;19;20021;-59
2021/12/19 08:16:59;;;;;;;0.10;0.10;;;;;;;9.38;74.71;103030.75;7360921;19;20011;-58
2021/12/19 08:19:25;;;;;;;0.10;0.10;;;;;;;9.35;74.59;103035.06;7357307;19;20043;-57
2021/12/19 08:21:52;;;;;;;0.00;0.00;;;;;;;9.35;74.67;103028.97;7371233;19;20018;-58
2021/12/19 08:24:19;;;;;;;0.00;0.00;;;;;;;9.33;74.47;103028.97;7364175;19;20003;-58
2021/12/19 08:26:45;;;;;;;0.00;0.00;;;;;;;9.31;74.25;103027.16;7358764;19;20053;-57
2021/12/19 08:29:11;;;;;;;0.10;0.10;;;;;;;9.30;74.41;103017.59;7363360;19;20014;-59
2021/12/19 08:31:37;;;;;;;0.08;0.08;;;;;;;9.14;74.67;103000.75;7361218;19;20002;-57
2021/12/19 08:34:03;;;;;;;0.10;0.10;;;;;;;9.25;74.42;103021.84;7369751;19;20050;-58
2021/12/19 08:36:28;;;;;;;0.10;0.10;;;;;;;9.21;74.41;103023.50;7357303;19;20010;-57
2021/12/19 08:38:54;;;;;;;0.05;0.05;;;;;;;9.20;74.80;103026.06;7368766;19;20014;-58
2021/12/19 08:41:20;;;;;;;0.00;0.00;;;;;;;9.17;74.72;103016.44;7371556;19;20023;-58
2021/12/19 08:43:46;;;;;;;0.03;0.03;;;;;;;9.17;74.64;103021.66;7359636;19;20396;-56
2021/12/19 08:46:12;;;;;;;0.00;0.00;;;;;;;9.16;74.76;103029.47;7368457;19;20013;-58
2021/12/19 08:48:39;;;;;;;0.00;0.00;;;;;;;9.15;75.09;103022.50;7359865;19;20343;-58
2021/12/19 08:51:04;;;;;;;0.10;0.10;;;;;;;9.15;74.85;103017.28;7362339;19;20757;-57
2021/12/19 08:53:30;;;;;;;0.00;0.00;;;;;;;9.15;74.95;103022.50;7365127;19;20074;-58
2021/12/19 08:55:56;;;;;;;0.00;0.00;;;;;;;9.14;74.66;103015.53;7356588;19;20044;-59
2021/12/19 08:58:21;;;;;;;0.00;0.00;;;;;;;9.08;74.96;103006.72;7363480;19;20475;-58
2021/12/19 09:00:47;;;;;;;0.03;0.03;;;;;;;9.12;74.88;103018.09;7364563;19;20026;-58
2021/12/19 09:03:13;;;;;;;0.00;0.00;;;;;;;9.13;74.88;103013.78;7369226;19;20690;-60
2021/12/19 09:05:38;;;;;;;0.00;0.00;;;;;;;9.13;74.80;103024.19;7362909;19;20101;-60
2021/12/19 09:08:04;;;;;;;0.10;0.10;;;;;;;9.12;75.12;103012.00;7369851;19;20023;-58
2021/12/19 09:10:30;;;;;;;0.00;0.00;;;;;;;9.12;74.85;103018.09;7364338;19;20006;-60
2021/12/19 09:12:56;;;;;;;0.10;0.10;;;;;;;9.12;74.87;103022.41;7368169;19;20023;-59
2021/12/19 09:15:21;;;;;;;0.00;0.00;;;;;;;9.13;75.15;103024.19;7360117;19;20011;-60
2021/12/19 09:17:47;;;;;;;0.00;0.00;;;;;;;9.14;74.83;103018.13;7350701;19;20375;-59
2021/12/19 09:20:13;;;;;;;0.00;0.00;;;;;;;9.17;74.97;103026.88;7364271;19;20022;-60
2021/12/19 09:22:40;;;;;;;0.00;0.00;;;;;;;9.20;75.06;103023.47;7363555;19;20010;-60
2021/12/19 09:25:06;;;;;;;0.00;0.00;;;;;;;9.22;75.30;103016.53;7359280;19;20348;-59
2021/12/19 09:27:32;;;;;;;0.10;0.10;;;;;;;9.25;75.10;103014.00;7362063;19;20006;-59
2021/12/19 09:29:57;;;;;;;0.00;0.00;;;;;;;9.27;74.79;103012.31;7364749;19;20023;-60
2021/12/19 09:32:23;;;;;;;0.10;0.10;;;;;;;9.31;74.83;103014.13;7362386;19;20010;-60
2021/12/19 09:34:48;;;;;;;0.05;0.05;;;;;;;9.34;74.76;103003.75;7364536;19;20010;-60
2021/12/19 09:37:15;;;;;;;0.00;0.00;;;;;;;9.37;75.10;103011.63;7362823;19;20070;-59
2021/12/19 09:39:41;;;;;;;0.10;0.10;;;;;;;9.41;75.01;103010.84;7357439;19;20007;-57
2021/12/19 09:42:09;;;;;;;0.00;0.00;;;;;;;9.44;74.76;103010.91;7357149;19;20034;-59
2021/12/19 09:44:37;;;;;;;0.00;0.00;;;;;;;9.47;75.07;103010.94;7364176;19;20503;-59
2021/12/19 09:47:05;;;;;;;0.03;0.03;;;;;;;9.51;74.63;103011.91;7365086;19;20024;-59
2021/12/19 09:49:33;;;;;;;0.00;0.00;;;;;;;9.55;74.72;103011.13;7366143;19;20011;-60
2021/12/19 09:51:59;;;;;;;0.10;0.10;;;;;;;9.45;74.69;102991.81;7356945;19;20713;-59
2021/12/19 09:54:24;;;;;;;0.00;0.00;;;;;;;9.60;74.53;103018.16;7361025;19;20070;-59
2021/12/19 09:56:50;;;;;;;0.00;0.00;;;;;;;9.62;74.79;103019.06;7358765;19;20048;-59
2021/12/19 09:59:19;;;;;;;0.00;0.00;;;;;;;9.56;74.80;103002.44;7363303;19;20733;-60
2021/12/19 10:01:46;;;;;;;0.00;0.00;;;;;;;9.71;74.70;103023.56;7347552;19;20470;-60
2021/12/19 10:04:36;;;;;;;0.00;0.00;;;;;;;9.76;74.41;103019.31;7336844;19;20540;-59
2021/12/19 10:07:08;;;;;;;0.10;0.10;;;;;;;9.79;74.35;103018.50;7257474;19;2004607;-59
2021/12/19 10:09:40;;;;;;;0.00;0.00;;;;;;;9.82;74.45;103023.75;7363804;19;20007;-58
2021/12/19 10:15:07;;;;;;;0.00;0.00;;;;;;;9.83;74.35;103015.06;7257610;19;2005014;-59
2021/12/19 10:17:34;;;;;;;0.00;0.00;;;;;;;9.90;74.55;103016.09;7364988;19;20006;-60
2021/12/19 10:20:02;;;;;;;0.00;0.00;;;;;;;9.94;74.48;103018.78;7363777;19;20023;-60
2021/12/19 10:22:33;;;;;;;0.00;0.00;;;;;;;9.99;74.57;103022.34;7361509;19;20026;-60
2021/12/19 10:25:21;;;;;;;0.03;0.03;;;;;;;10.05;74.46;103009.38;7360116;19;20035;-58
2021/12/19 10:27:50;;;;;;;0.00;0.00;;;;;;;10.06;74.07;103013.75;7363490;19;20010;-60
2021/12/19 10:30:26;;;;;;;0.00;0.00;;;;;;;10.10;74.37;103014.69;7366951;19;20007;-60
2021/12/19 10:33:06;;;;;;;0.00;0.00;;;;;;;10.17;74.33;103018.25;7364206;19;20002;-60
2021/12/19 10:35:41;;;;;;;0.00;0.00;;;;;;;10.19;73.98;103013.94;7363776;19;20014;-60
2021/12/19 10:38:29;;;;;;;0.00;0.00;;;;;;;10.26;73.80;103016.72;7365584;19;20335;-60
2021/12/19 10:41:13;;;;;;;0.00;0.00;;;;;;;10.26;74.01;103021.94;7361513;19;20014;-59
2021/12/19 10:44:03;;;;;;;0.03;0.03;;;;;;;10.35;73.78;103016.00;7359033;19;20010;-58
2021/12/19 10:46:37;;;;;;;0.00;0.00;;;;;;;10.29;73.97;102994.97;7366872;19;20018;-60
2021/12/19 10:49:04;;;;;;;0.10;0.10;;;;;;;10.37;73.43;103014.25;7355597;19;20015;-58
2021/12/19 10:51:32;;;;;;;0.10;0.10;;;;;;;10.38;73.62;103010.78;7362334;19;20030;-60
2021/12/19 10:54:03;;;;;;;0.00;0.00;;;;;;;10.40;73.35;103014.31;7362921;19;20013;-60
2021/12/19 10:56:37;;;;;;;0.10;0.10;;;;;;;10.44;73.78;103016.13;7357023;19;20006;-59
2021/12/19 10:59:06;;;;;;;0.00;0.00;;;;;;;10.44;73.50;103016.13;7360677;19;20014;-59
2021/12/19 11:01:41;;;;;;;0.00;0.00;;;;;;;10.47;73.49;103015.28;7359813;19;20866;-59
2021/12/19 11:04:16;;;;;;;0.00;0.00;;;;;;;10.43;73.67;103014.34;7358582;19;20380;-60
2021/12/19 11:06:47;;;;;;;0.10;0.10;;;;;;;10.47;73.29;103010.94;7357374;19;20573;-60
2021/12/19 11:09:16;;;;;;;0.10;0.10;;;;;;;10.45;73.68;103007.44;7364114;19;20010;-60
2021/12/19 11:11:41;;;;;;;0.00;0.00;;;;;;;10.47;73.33;103000.50;7364992;19;20018;-60
2021/12/19 11:14:12;;;;;;;0.00;0.00;;;;;;;10.50;73.31;103000.53;7364920;19;20416;-60
2021/12/19 11:16:38;;;;;;;0.00;0.00;;;;;;;10.45;73.63;102991.75;7358111;19;20011;-59
2021/12/19 11:19:05;;;;;;;0.00;0.00;;;;;;;10.51;73.19;102996.19;7366396;19;20014;-60
2021/12/19 11:21:34;;;;;;;0.10;0.10;;;;;;;10.51;73.46;102993.59;7355329;19;20011;-58
2021/12/19 11:24:05;;;;;;;0.03;0.03;;;;;;;10.52;73.31;102985.75;7357357;19;20829;-60
2021/12/19 11:26:31;;;;;;;0.10;0.10;;;;;;;10.55;73.15;102988.44;7363034;19;20109;-59
2021/12/19 11:28:58;;;;;;;0.00;0.00;;;;;;;10.56;73.16;102986.69;7359740;19;20023;-57
2021/12/19 11:31:27;;;;;;;0.00;0.00;;;;;;;10.59;73.39;102982.41;7363673;19;20034;-59
2021/12/19 11:34:25;;;;;;;0.00;0.00;;;;;;;10.64;73.61;102988.56;7355613;19;20046;-59
2021/12/19 11:37:18;;;;;;;0.10;0.10;;;;;;;10.66;72.87;102965.06;7258348;19;2004382;-59
2021/12/19 11:39:51;;;;;;;0.00;0.00;;;;;;;10.68;73.30;102972.91;7260823;19;2004427;-59
2021/12/19 11:42:28;;;;;;;0.00;0.00;;;;;;;10.67;73.12;102966.81;7356832;19;20026;-59
2021/12/19 11:47:51;;;;;;;0.00;0.00;;;;;;;10.70;72.70;102950.31;7358356;19;19938;-59
2021/12/19 11:50:23;;;;;;;0.08;0.08;;;;;;;10.68;73.00;102950.25;7251968;19;2004474;-59
2021/12/19 11:52:50;;;;;;;0.00;0.00;;;;;;;10.65;73.06;102943.28;7359936;19;20031;-59
2021/12/19 11:55:23;;;;;;;0.00;0.00;;;;;;;10.69;73.12;102943.28;7354251;19;20022;-58
2021/12/19 11:58:09;;;;;;;0.00;0.00;;;;;;;10.70;72.78;102939.84;7357132;19;20043;-59
2021/12/19 12:00:39;;;;;;;0.00;0.00;;;;;;;10.70;72.80;102934.63;7359552;19;20450;-59
2021/12/19 12:03:13;;;;;;;0.10;0.10;;;;;;;10.73;72.88;102940.75;7358631;19;20010;-58
2021/12/19 12:05:39;;;;;;;0.10;0.10;;;;;;;10.67;73.06;102929.34;7357520;19;20615;-59
2021/12/19 12:08:05;;;;;;;0.00;0.00;;;;;;;10.72;72.95;102927.66;7360748;19;20023;-59
2021/12/19 12:10:49;;;;;;;0.00;0.00;;;;;;;10.77;72.76;102921.63;7360314;19;20029;-59
2021/12/19 12:13:28;;;;;;;0.00;0.00;;;;;;;10.78;72.92;102931.22;7357128;19;20023;-59
2021/12/19 12:16:07;;;;;;;0.00;0.00;;;;;;;10.76;72.77;102924.25;7356806;19;20025;-59
2021/12/19 12:18:38;;;;;;;0.10;0.10;;;;;;;10.76;72.48;102919.88;7361202;19;20011;-59
2021/12/19 12:21:25;;;;;;;0.00;0.00;;;;;;;10.80;72.76;102923.41;7358534;19;20102;-59
2021/12/19 12:24:04;;;;;;;0.00;0.00;;;;;;;10.79;72.34;102913.81;7360491;19;20014;-59
2021/12/19 12:26:42;;;;;;;0.00;0.00;;;;;;;10.80;72.36;102910.34;7359672;19;20010;-59
2021/12/19 12:29:08;;;;;;;0.00;0.00;;;;;;;10.72;72.77;102907.63;7359983;19;20019;-58
2021/12/19 12:31:36;;;;;;;0.00;0.00;;;;;;;10.79;72.57;102913.81;7357042;19;20006;-59
2021/12/19 12:34:03;;;;;;;0.00;0.00;;;;;;;10.79;72.25;102911.19;7356504;19;20014;-59
2021/12/19 12:36:28;;;;;;;0.10;0.10;;;;;;;10.80;72.36;102912.97;7364758;19;20357;-59
2021/12/19 12:38:54;;;;;;;0.00;0.00;;;;;;;10.80;72.56;102915.59;7360936;19;20011;-59
2021/12/19 12:41:28;;;;;;;0.10;0.10;;;;;;;10.83;72.68;102902.53;7356384;19;20093;-58